createdAt,value
2018-04-27T00:00:55.630Z,34.20
2018-04-27T00:03:23.966Z,34.20
2018-04-27T00:05:52.315Z,34.20
2018-04-27T00:08:20.627Z,34.20
2018-04-27T00:10:49.319Z,34.40
2018-04-27T00:13:17.648Z,34.20
2018-04-27T00:15:45.946Z,34.40
2018-04-27T00:18:14.256Z,34.40
2018-04-27T00:20:42.574Z,34.40
2018-04-27T00:23:10.900Z,34.40
2018-04-27T00:25:39.486Z,34.40
2018-04-27T00:28:07.787Z,34.40
2018-04-27T00:30:36.519Z,34.40
2018-04-27T00:33:04.830Z,34.40
2018-04-27T00:35:33.130Z,34.40
2018-04-27T00:38:01.842Z,34.40
2018-04-27T00:40:30.175Z,34.40
2018-04-27T00:42:58.514Z,34.50
2018-04-27T00:45:26.838Z,34.50
2018-04-27T00:47:55.537Z,34.50
2018-04-27T00:50:23.968Z,34.50
2018-04-27T00:53:04.316Z,34.50
2018-04-27T00:55:32.629Z,34.50
2018-04-27T00:58:00.942Z,34.50
2018-04-27T01:00:29.291Z,34.50
2018-04-27T01:02:58.269Z,34.50
2018-04-27T01:05:26.599Z,34.50
2018-04-27T01:07:55.264Z,34.50
2018-04-27T01:10:23.970Z,34.70
2018-04-27T01:12:52.507Z,34.70
2018-04-27T01:15:20.840Z,34.70
2018-04-27T01:17:49.461Z,34.70
2018-04-27T01:20:17.757Z,34.80
2018-04-27T01:22:46.733Z,34.80
2018-04-27T01:25:15.862Z,34.80
2018-04-27T01:27:44.207Z,34.80
2018-04-27T01:30:12.526Z,35.00
2018-04-27T01:32:40.821Z,35.00
2018-04-27T01:35:09.214Z,35.00
2018-04-27T01:37:37.497Z,35.10
2018-04-27T01:40:05.809Z,35.10
2018-04-27T01:42:34.538Z,35.10
2018-04-27T01:45:02.895Z,35.10
2018-04-27T01:47:31.212Z,35.30
2018-04-27T01:49:59.822Z,35.30
2018-04-27T01:52:28.127Z,35.30
2018-04-27T01:54:56.438Z,35.40
2018-04-27T01:57:24.759Z,35.40
2018-04-27T01:59:53.082Z,35.40
2018-04-27T02:02:21.390Z,35.40
2018-04-27T02:04:50.154Z,35.60
2018-04-27T02:07:18.773Z,35.60
2018-04-27T02:09:47.039Z,35.60
2018-04-27T02:12:15.346Z,35.60
2018-04-27T02:14:44.022Z,35.60
2018-04-27T02:17:12.684Z,35.60
2018-04-27T02:19:40.965Z,35.60
2018-04-27T02:22:09.269Z,35.60
2018-04-27T02:24:37.963Z,35.70
2018-04-27T02:27:06.242Z,35.70
2018-04-27T02:29:34.545Z,35.70
2018-04-27T02:32:02.842Z,35.70
2018-04-27T02:34:31.125Z,35.70
2018-04-27T02:36:59.420Z,35.70
2018-04-27T02:39:27.689Z,35.70
2018-04-27T02:41:55.948Z,35.70
2018-04-27T02:44:24.267Z,35.70
2018-04-27T02:46:52.927Z,35.70
2018-04-27T02:49:21.196Z,35.70
2018-04-27T02:51:49.483Z,35.70
2018-04-27T02:54:18.655Z,35.70
2018-04-27T02:56:48.904Z,35.70
2018-04-27T02:59:17.219Z,35.70
2018-04-27T03:01:45.525Z,35.90
2018-04-27T03:04:13.804Z,35.70
2018-04-27T03:06:42.074Z,35.90
2018-04-27T03:09:10.385Z,35.90
2018-04-27T03:11:38.652Z,35.90
2018-04-27T03:14:06.921Z,35.90
2018-04-27T03:16:35.223Z,35.90
2018-04-27T03:19:04.196Z,35.70
2018-04-27T03:21:32.464Z,35.90
2018-04-27T03:24:00.829Z,35.70
2018-04-27T03:26:29.048Z,35.90
2018-04-27T03:28:57.309Z,35.90
2018-04-27T03:31:25.609Z,35.70
2018-04-27T03:33:53.888Z,35.90
2018-04-27T03:36:22.595Z,35.90
2018-04-27T03:38:50.877Z,35.90
2018-04-27T03:41:19.176Z,35.90
2018-04-27T03:43:47.441Z,35.70
2018-04-27T03:46:15.710Z,35.70
2018-04-27T03:48:44.012Z,35.70
2018-04-27T03:51:12.288Z,35.70
2018-04-27T03:53:40.642Z,35.70
2018-04-27T03:56:08.938Z,35.90
2018-04-27T03:58:37.209Z,35.90
2018-04-27T04:01:17.650Z,35.90
2018-04-27T04:03:57.934Z,35.90
2018-04-27T04:06:26.203Z,35.90
2018-04-27T04:08:54.478Z,35.90
2018-04-27T04:11:22.763Z,35.90
2018-04-27T04:13:51.057Z,35.90
2018-04-27T04:16:19.329Z,35.90
2018-04-27T04:18:48.028Z,35.90
2018-04-27T04:21:16.624Z,35.90
2018-04-27T04:23:45.296Z,35.70
2018-04-27T04:26:13.863Z,35.70
2018-04-27T04:28:42.155Z,35.70
2018-04-27T04:31:10.838Z,35.70
2018-04-27T04:33:39.103Z,35.70
2018-04-27T04:36:07.395Z,35.70
2018-04-27T04:38:35.690Z,35.70
2018-04-27T04:41:03.973Z,35.40
2018-04-27T04:43:32.250Z,35.40
2018-04-27T04:46:00.534Z,35.40
2018-04-27T04:48:29.479Z,35.30
2018-04-27T04:50:57.838Z,35.30
2018-04-27T04:53:26.538Z,35.10
2018-04-27T04:55:54.854Z,35.30
2018-04-27T04:58:23.508Z,35.10
2018-04-27T05:00:51.775Z,35.10
2018-04-27T05:03:20.092Z,35.10
2018-04-27T05:05:48.394Z,35.10
2018-04-27T05:08:17.062Z,35.00
2018-04-27T05:10:45.366Z,35.00
2018-04-27T05:13:13.578Z,35.00
2018-04-27T05:15:41.849Z,35.00
2018-04-27T05:18:35.715Z,35.00
2018-04-27T05:21:04.084Z,35.00
2018-04-27T05:23:32.346Z,35.00
2018-04-27T05:26:00.648Z,35.00
2018-04-27T05:28:28.934Z,35.00
2018-04-27T05:31:09.169Z,34.80
2018-04-27T05:33:37.440Z,34.80
2018-04-27T05:36:05.715Z,34.70
2018-04-27T05:38:34.018Z,34.70
2018-04-27T05:41:02.315Z,35.10
2018-04-27T05:43:30.980Z,35.30
2018-04-27T05:45:59.285Z,35.30
2018-04-27T05:48:28.019Z,35.00
2018-04-27T05:50:58.011Z,35.00
2018-04-27T05:53:26.287Z,35.30
2018-04-27T05:55:54.568Z,35.30
2018-04-27T05:58:22.897Z,35.00
2018-04-27T06:00:51.165Z,35.00
2018-04-27T06:03:19.849Z,34.40
2018-04-27T06:05:48.152Z,34.50
2018-04-27T06:08:16.887Z,34.40
2018-04-27T06:10:45.175Z,34.40
2018-04-27T06:13:13.922Z,34.20
2018-04-27T06:15:42.188Z,34.10
2018-04-27T06:18:10.464Z,34.10
2018-04-27T06:20:39.265Z,34.00
2018-04-27T06:23:07.833Z,34.00
2018-04-27T06:25:36.240Z,34.00
2018-04-27T06:28:04.532Z,33.80
2018-04-27T06:30:32.883Z,33.80
2018-04-27T06:33:01.160Z,33.70
2018-04-27T06:35:29.424Z,33.70
2018-04-27T06:37:57.843Z,33.50
2018-04-27T06:40:26.120Z,47.00
2018-04-27T06:42:54.390Z,44.70
2018-04-27T06:45:22.706Z,43.60
2018-04-27T06:47:51.368Z,41.20
2018-04-27T06:50:19.642Z,41.00
2018-04-27T06:52:47.919Z,40.00
2018-04-27T06:55:16.233Z,39.10
2018-04-27T06:57:44.927Z,37.90
2018-04-27T07:00:13.189Z,37.90
2018-04-27T07:02:41.893Z,36.20
2018-04-27T07:05:10.318Z,36.20
2018-04-27T07:07:39.037Z,35.40
2018-04-27T07:10:07.716Z,34.70
2018-04-27T07:12:35.977Z,34.70
2018-04-27T07:15:04.558Z,34.40
2018-04-27T07:17:33.145Z,32.90
2018-04-27T07:20:01.504Z,32.20
2018-04-27T07:22:30.018Z,33.20
2018-04-27T07:24:58.343Z,34.10
2018-04-27T07:27:26.656Z,34.00
2018-04-27T07:29:55.030Z,33.80
2018-04-27T07:32:23.395Z,33.20
2018-04-27T07:34:51.656Z,32.50
2018-04-27T07:37:19.968Z,32.50
2018-04-27T07:39:48.232Z,32.30
2018-04-27T07:42:16.494Z,32.00
2018-04-27T07:44:44.906Z,31.60
2018-04-27T07:47:13.247Z,30.80
2018-04-27T07:49:41.503Z,29.90
2018-04-27T07:52:09.795Z,30.10
2018-04-27T07:54:38.058Z,29.40
2018-04-27T07:57:06.360Z,29.30
2018-04-27T07:59:34.645Z,29.20
2018-04-27T08:02:03.016Z,28.70
2018-04-27T08:04:31.325Z,28.30
2018-04-27T08:06:59.670Z,28.10
2018-04-27T08:09:27.947Z,28.10
2018-04-27T08:11:56.548Z,27.60
2018-04-27T08:14:24.811Z,27.90
2018-04-27T08:16:53.184Z,27.60
2018-04-27T08:19:21.461Z,27.50
2018-04-27T08:21:49.735Z,27.10
2018-04-27T08:24:18.117Z,27.20
2018-04-27T08:26:46.424Z,27.20
2018-04-27T08:29:14.720Z,26.90
2018-04-27T08:31:43.065Z,26.10
2018-04-27T08:34:11.749Z,26.40
2018-04-27T08:36:40.048Z,26.40
2018-04-27T08:39:08.710Z,25.60
2018-04-27T08:41:36.993Z,25.60
2018-04-27T08:44:05.293Z,24.70
2018-04-27T08:46:33.961Z,24.50
2018-04-27T08:49:02.331Z,24.50
2018-04-27T08:51:31.378Z,24.50
2018-04-27T08:53:59.674Z,24.20
2018-04-27T08:56:27.958Z,24.10
2018-04-27T08:58:56.283Z,23.80
2018-04-27T09:01:24.965Z,23.80
2018-04-27T09:03:53.267Z,23.80
2018-04-27T09:06:21.648Z,24.00
2018-04-27T09:08:49.901Z,23.80
2018-04-27T09:11:18.245Z,23.50
2018-04-27T09:13:46.608Z,23.70
2018-04-27T09:16:14.890Z,23.60
2018-04-27T09:18:43.479Z,24.10
2018-04-27T09:21:12.065Z,23.60
2018-04-27T09:23:40.339Z,23.60
2018-04-27T09:26:08.707Z,23.20
2018-04-27T09:28:37.014Z,23.90
2018-04-27T09:31:05.597Z,24.50
2018-04-27T09:33:34.181Z,24.70
2018-04-27T09:36:02.484Z,24.70
2018-04-27T09:38:30.761Z,24.80
2018-04-27T09:40:59.069Z,23.30
2018-04-27T09:43:27.356Z,22.50
2018-04-27T09:45:55.636Z,22.50
2018-04-27T09:48:23.902Z,22.30
2018-04-27T09:50:52.238Z,22.20
2018-04-27T09:53:20.532Z,22.30
2018-04-27T09:55:48.939Z,22.40
2018-04-27T09:58:17.269Z,22.50
2018-04-27T10:00:45.696Z,22.10
2018-04-27T10:03:13.989Z,21.50
2018-04-27T10:05:42.349Z,21.40
2018-04-27T10:08:10.603Z,21.50
2018-04-27T10:10:38.886Z,21.70
2018-04-27T10:13:07.182Z,22.90
2018-04-27T10:15:35.469Z,23.30
2018-04-27T10:18:03.831Z,22.20
2018-04-27T10:20:32.116Z,21.90
2018-04-27T10:23:00.419Z,22.20
2018-04-27T10:25:29.170Z,22.10
2018-04-27T10:27:57.466Z,22.10
2018-04-27T10:30:25.890Z,22.40
2018-04-27T10:32:54.212Z,22.60
2018-04-27T10:35:22.517Z,22.50
2018-04-27T10:37:50.803Z,22.60
2018-04-27T10:40:19.108Z,22.40
2018-04-27T10:42:47.531Z,22.30
2018-04-27T10:45:15.804Z,22.00
2018-04-27T10:47:44.101Z,21.80
2018-04-27T10:50:12.423Z,21.50
2018-04-27T10:52:40.723Z,21.30
2018-04-27T10:55:09.074Z,21.00
2018-04-27T10:57:37.329Z,19.60
2018-04-27T11:00:05.616Z,20.60
2018-04-27T11:02:33.903Z,21.10
2018-04-27T11:05:03.452Z,21.10
2018-04-27T11:07:31.726Z,20.80
2018-04-27T11:10:00.521Z,21.10
2018-04-27T11:12:28.806Z,20.20
2018-04-27T11:14:57.488Z,21.00
2018-04-27T11:17:25.786Z,21.00
2018-04-27T11:19:54.466Z,21.20
2018-04-27T11:22:22.789Z,21.20
2018-04-27T11:24:51.070Z,20.70
2018-04-27T11:27:19.354Z,20.00
2018-04-27T11:29:47.772Z,20.80
2018-04-27T11:32:16.445Z,20.90
2018-04-27T11:34:44.717Z,20.90
2018-04-27T11:37:13.070Z,20.10
2018-04-27T11:39:41.341Z,20.50
2018-04-27T11:42:09.644Z,20.80
2018-04-27T11:44:37.964Z,21.20
2018-04-27T11:47:06.241Z,20.70
2018-04-27T11:49:34.509Z,19.30
2018-04-27T11:52:02.819Z,18.90
2018-04-27T11:54:31.537Z,18.70
2018-04-27T11:56:59.892Z,18.50
2018-04-27T11:59:28.220Z,18.60
2018-04-27T12:01:56.964Z,18.50
2018-04-27T12:04:25.225Z,18.50
2018-04-27T12:06:53.543Z,18.50
2018-04-27T12:09:21.898Z,18.40
2018-04-27T12:11:50.266Z,18.10
2018-04-27T12:14:19.444Z,18.00
2018-04-27T12:16:47.721Z,17.50
2018-04-27T12:19:16.072Z,17.30
2018-04-27T12:21:44.356Z,17.10
2018-04-27T12:24:12.660Z,16.90
2018-04-27T12:26:40.988Z,16.90
2018-04-27T12:29:09.733Z,17.00
2018-04-27T12:31:38.147Z,17.10
2018-04-27T12:34:06.388Z,16.70
2018-04-27T12:36:34.657Z,16.60
2018-04-27T12:39:02.947Z,16.70
2018-04-27T12:41:31.244Z,16.70
2018-04-27T12:43:59.601Z,16.70
2018-04-27T12:46:27.908Z,16.70
2018-04-27T12:48:56.597Z,16.70
2018-04-27T12:51:24.916Z,16.70
2018-04-27T12:53:53.194Z,16.90
2018-04-27T12:56:21.545Z,16.90
2018-04-27T12:58:49.865Z,16.70
2018-04-27T13:01:18.165Z,16.70
2018-04-27T13:03:46.436Z,16.70
2018-04-27T13:06:14.792Z,16.60
2018-04-27T13:08:43.098Z,16.60
2018-04-27T13:11:11.371Z,16.70
2018-04-27T13:13:39.648Z,16.70
2018-04-27T13:16:08.026Z,16.70
2018-04-27T13:18:36.300Z,16.70
2018-04-27T13:21:04.580Z,16.90
2018-04-27T13:23:32.900Z,16.80
2018-04-27T13:26:01.183Z,16.70
2018-04-27T13:28:29.463Z,16.90
2018-04-27T13:30:57.777Z,16.90
2018-04-27T13:33:26.040Z,16.90
2018-04-27T13:35:54.321Z,16.80
2018-04-27T13:38:22.656Z,16.90
2018-04-27T13:40:50.938Z,17.00
2018-04-27T13:43:19.242Z,16.90
2018-04-27T13:45:47.516Z,17.10
2018-04-27T13:48:16.126Z,17.10
2018-04-27T13:50:44.412Z,17.50
2018-04-27T13:53:12.690Z,17.40
2018-04-27T13:55:40.965Z,17.50
2018-04-27T13:58:10.473Z,17.70
2018-04-27T14:00:39.135Z,17.70
2018-04-27T14:03:07.502Z,17.70
2018-04-27T14:05:35.885Z,17.80
2018-04-27T14:08:04.476Z,17.90
2018-04-27T14:10:32.775Z,17.90
2018-04-27T14:13:01.446Z,17.70
2018-04-27T14:15:29.884Z,17.70
2018-04-27T14:17:58.147Z,17.90
2018-04-27T14:20:26.431Z,17.90
2018-04-27T14:22:54.743Z,18.10
2018-04-27T14:25:23.017Z,18.10
2018-04-27T14:27:51.349Z,18.20
2018-04-27T14:30:19.986Z,18.30
2018-04-27T14:32:48.280Z,18.40
2018-04-27T14:35:17.212Z,18.40
2018-04-27T14:37:45.518Z,18.40
2018-04-27T14:40:13.804Z,18.40
2018-04-27T14:42:42.076Z,18.40
2018-04-27T14:45:10.357Z,18.40
2018-04-27T14:47:38.941Z,18.60
2018-04-27T14:50:07.255Z,18.60
2018-04-27T14:52:35.632Z,18.80
2018-04-27T14:55:03.862Z,18.80
2018-04-27T14:57:32.146Z,18.90
2018-04-27T15:00:00.418Z,19.00
2018-04-27T15:02:28.765Z,19.00
2018-04-27T15:04:57.389Z,19.00
2018-04-27T15:07:26.099Z,19.10
2018-04-27T15:09:54.420Z,19.10
2018-04-27T15:12:22.709Z,19.20
2018-04-27T15:14:50.986Z,19.30
2018-04-27T15:17:20.101Z,19.30
2018-04-27T15:19:48.462Z,19.30
2018-04-27T15:22:16.720Z,19.30
2018-04-27T15:24:45.068Z,19.20
2018-04-27T15:27:13.775Z,19.40
2018-04-27T15:29:42.942Z,19.40
2018-04-27T15:32:11.904Z,19.50
2018-04-27T15:34:40.184Z,19.60
2018-04-27T15:37:08.478Z,19.60
2018-04-27T15:39:36.781Z,19.70
2018-04-27T15:42:05.096Z,19.70
2018-04-27T15:44:33.692Z,19.80
2018-04-27T15:47:01.985Z,20.00
2018-04-27T15:49:30.560Z,20.00
2018-04-27T15:51:58.968Z,19.90
2018-04-27T15:54:27.182Z,19.90
2018-04-27T15:56:56.187Z,20.00
2018-04-27T15:59:24.492Z,20.00
2018-04-27T16:01:54.019Z,19.90
2018-04-27T16:04:23.124Z,19.90
2018-04-27T16:06:51.905Z,20.00
2018-04-27T16:09:20.294Z,20.10
2018-04-27T16:11:48.525Z,20.10
2018-04-27T16:14:16.804Z,20.20
2018-04-27T16:16:46.210Z,20.10
2018-04-27T16:19:14.492Z,20.10
2018-04-27T16:21:43.667Z,20.10
2018-04-27T16:24:11.990Z,20.00
2018-04-27T16:26:40.259Z,20.10
2018-04-27T16:29:11.353Z,20.10
2018-04-27T16:31:40.525Z,20.10
2018-04-27T16:34:09.370Z,20.00
2018-04-27T16:36:38.085Z,20.10
2018-04-27T16:39:06.370Z,20.30
2018-04-27T16:41:35.525Z,20.30
2018-04-27T16:44:05.004Z,20.50
2018-04-27T16:46:33.274Z,20.50
2018-04-27T16:49:02.256Z,20.50
2018-04-27T16:51:30.771Z,20.50
2018-04-27T16:53:59.353Z,20.50
2018-04-27T16:56:27.644Z,20.50
2018-04-27T16:58:56.394Z,20.50
2018-04-27T17:01:24.719Z,20.50
2018-04-27T17:03:53.440Z,20.60
2018-04-27T17:06:21.711Z,20.60
2018-04-27T17:08:50.117Z,20.70
2018-04-27T17:11:18.426Z,20.80
2018-04-27T17:13:47.228Z,20.80
2018-04-27T17:16:16.021Z,20.90
2018-04-27T17:18:44.350Z,20.90
2018-04-27T17:21:12.659Z,21.00
2018-04-27T17:23:40.957Z,21.00
2018-04-27T17:26:09.235Z,21.10
2018-04-27T17:28:37.594Z,21.10
2018-04-27T17:31:05.835Z,21.10
2018-04-27T17:33:34.145Z,21.20
2018-04-27T17:36:02.820Z,21.30
2018-04-27T17:38:31.178Z,21.30
2018-04-27T17:40:59.552Z,21.40
2018-04-27T17:43:27.888Z,21.50
2018-04-27T17:45:56.204Z,21.60
2018-04-27T17:48:24.481Z,21.80
2018-04-27T17:50:52.757Z,21.80
2018-04-27T17:53:21.094Z,21.80
2018-04-27T17:55:49.690Z,21.90
2018-04-27T17:58:17.972Z,22.00
2018-04-27T18:00:48.536Z,21.80
2018-04-27T18:03:17.339Z,22.60
2018-04-27T18:05:45.799Z,22.70
2018-04-27T18:08:14.225Z,23.20
2018-04-27T18:10:42.546Z,23.50
2018-04-27T18:13:10.940Z,23.40
2018-04-27T18:15:39.291Z,24.00
2018-04-27T18:18:07.580Z,24.00
2018-04-27T18:20:36.090Z,23.80
2018-04-27T18:23:05.997Z,23.60
2018-04-27T18:25:34.700Z,23.70
2018-04-27T18:28:02.986Z,24.30
2018-04-27T18:30:31.347Z,24.40
2018-04-27T18:32:59.696Z,24.40
2018-04-27T18:35:28.074Z,24.30
2018-04-27T18:37:56.393Z,24.20
2018-04-27T18:40:29.611Z,24.40
2018-04-27T18:42:57.962Z,24.40
2018-04-27T18:45:26.640Z,24.70
2018-04-27T18:47:55.622Z,24.70
2018-04-27T18:50:33.459Z,24.60
2018-04-27T18:53:07.438Z,24.50
2018-04-27T18:55:37.406Z,24.40
2018-04-27T18:58:06.500Z,24.60
2018-04-27T19:00:37.297Z,24.60
2018-04-27T19:03:06.913Z,24.60
2018-04-27T19:05:36.320Z,24.80
2018-04-27T19:08:06.756Z,24.80
2018-04-27T19:10:37.886Z,25.00
2018-04-27T19:13:13.109Z,25.00
2018-04-27T19:15:41.850Z,25.40
2018-04-27T19:18:11.593Z,25.60
2018-04-27T19:20:43.486Z,25.50
2018-04-27T19:23:12.818Z,25.40
2018-04-27T19:25:42.832Z,25.50
2018-04-27T19:28:11.592Z,25.30
2018-04-27T19:30:41.585Z,25.50
2018-04-27T19:33:10.858Z,25.60
2018-04-27T19:35:39.635Z,25.50
2018-04-27T19:38:08.065Z,25.80
2018-04-27T19:40:37.148Z,25.90
2018-04-27T19:43:05.836Z,25.70
2018-04-27T19:45:34.558Z,26.20
2018-04-27T19:48:02.879Z,26.20
2018-04-27T19:50:31.213Z,26.10
2018-04-27T19:52:59.587Z,26.30
2018-04-27T19:55:27.900Z,26.50
2018-04-27T19:57:56.197Z,26.40
2018-04-27T20:00:28.060Z,26.70
2018-04-27T20:02:57.484Z,26.50
2018-04-27T20:05:26.369Z,26.30
2018-04-27T20:07:56.082Z,26.00
2018-04-27T20:10:32.728Z,26.50
2018-04-27T20:13:01.918Z,26.30
2018-04-27T20:15:36.059Z,26.30
2018-04-27T20:18:06.798Z,26.50
2018-04-27T20:20:35.481Z,26.20
2018-04-27T20:23:06.655Z,26.20
2018-04-27T20:25:34.906Z,26.20
2018-04-27T20:28:11.745Z,26.70
2018-04-27T20:30:40.021Z,26.70
2018-04-27T20:33:10.664Z,26.80
2018-04-27T20:35:38.981Z,26.90
2018-04-27T20:38:08.203Z,27.00
2018-04-27T20:40:36.563Z,27.00
2018-04-27T20:43:05.868Z,27.00
2018-04-27T20:45:35.225Z,27.00
2018-04-27T20:48:03.539Z,27.20
2018-04-27T20:50:31.823Z,26.80
2018-04-27T20:53:01.980Z,26.70
2018-04-27T20:55:31.394Z,26.70
2018-04-27T20:57:59.710Z,26.60
2018-04-27T21:00:29.747Z,26.60
2018-04-27T21:02:58.028Z,26.60
2018-04-27T21:05:26.328Z,26.50
2018-04-27T21:07:54.777Z,26.60
2018-04-27T21:10:23.559Z,26.60
2018-04-27T21:12:52.762Z,26.60
2018-04-27T21:15:21.511Z,26.60
2018-04-27T21:17:49.969Z,26.60
2018-04-27T21:20:18.806Z,26.80
2018-04-27T21:22:47.490Z,26.70
2018-04-27T21:25:28.830Z,26.80
2018-04-27T21:27:57.237Z,26.80
2018-04-27T21:30:25.900Z,26.90
2018-04-27T21:32:59.756Z,26.90
2018-04-27T21:35:35.653Z,26.90
2018-04-27T21:38:21.713Z,26.90
2018-04-27T21:40:50.499Z,27.00
2018-04-27T21:43:18.785Z,27.00
2018-04-27T21:45:47.112Z,27.10
2018-04-27T21:48:17.313Z,27.10
2018-04-27T21:50:45.688Z,27.10
2018-04-27T21:53:14.591Z,27.20
2018-04-27T21:55:43.832Z,27.20
2018-04-27T21:58:12.896Z,27.20
2018-04-27T22:00:41.162Z,27.20
2018-04-27T22:03:12.776Z,27.20
2018-04-27T22:08:44.085Z,27.30
2018-04-27T22:11:13.866Z,27.30
2018-04-27T22:13:42.144Z,27.30
2018-04-27T22:16:24.093Z,27.30
2018-04-27T22:18:52.360Z,27.40
2018-04-27T22:21:20.692Z,27.40
2018-04-27T22:23:49.892Z,27.40
2018-04-27T22:26:18.196Z,27.50
2018-04-27T22:28:47.209Z,27.50
2018-04-27T22:31:15.909Z,27.50
2018-04-27T22:33:44.896Z,27.50
2018-04-27T22:36:19.878Z,27.50
2018-04-27T22:39:21.916Z,27.60
2018-04-27T22:41:56.774Z,27.60
2018-04-27T22:44:31.372Z,27.70
2018-04-27T22:46:59.648Z,27.70
2018-04-27T22:49:27.938Z,27.70
2018-04-27T22:51:56.238Z,27.70
2018-04-27T22:54:39.413Z,27.70
2018-04-27T22:57:09.179Z,27.80
2018-04-27T22:59:37.462Z,27.90
2018-04-27T23:02:20.685Z,27.90
2018-04-27T23:04:49.683Z,27.90
2018-04-27T23:07:22.865Z,28.00
2018-04-27T23:09:51.993Z,28.00
2018-04-27T23:12:20.273Z,28.00
2018-04-27T23:14:50.110Z,28.00
2018-04-27T23:17:18.408Z,28.00
2018-04-27T23:19:49.415Z,28.00
2018-04-27T23:22:29.768Z,28.10
2018-04-27T23:25:03.636Z,28.10
2018-04-27T23:27:31.916Z,28.10
2018-04-27T23:30:00.182Z,28.10
2018-04-27T23:32:28.477Z,28.20
2018-04-27T23:34:57.139Z,28.20
2018-04-27T23:37:25.412Z,28.20
2018-04-27T23:39:54.460Z,28.20
2018-04-27T23:42:23.437Z,28.20
2018-04-27T23:44:51.740Z,28.20
2018-04-27T23:47:20.025Z,28.30
2018-04-27T23:49:48.328Z,28.30
2018-04-27T23:52:16.603Z,28.30
2018-04-27T23:54:44.949Z,28.30
2018-04-27T23:57:14.153Z,28.30
2018-04-27T23:59:47.279Z,28.30
